DERBW EDKB-EDDL
Flight info
| Callsign | DERBW |
|---|---|
| Flight time | N/A |
| Altitude | 6000 |
| Route | IBIXI |
| Aircraft | DA62/L-SDFGRY/C |
Departure
| Time | 2026-04-12 17:56 |
|---|---|
| Airport | Bonn-Hangelar Airfield (EDKB) |
Arrival
| Time | N/A |
|---|---|
| Airport | Düsseldorf Airport (EDDL) |
| Time | Latitude | Longitude | Altitude | Speed | Heading |
|---|---|---|---|---|---|
| 2026-04-12 17:50 | 50.76698 | 7.16581 | 205 ft | 0 kts | 15° |
| 2026-04-12 17:53 | 50.76703 | 7.16583 | 205 ft | 1 kts | 39° |
| 2026-04-12 17:53 | 50.76724 | 7.16655 | 201 ft | 16 kts | 97° |
| 2026-04-12 17:54 | 50.76719 | 7.16770 | 208 ft | 8 kts | 21° |
| 2026-04-12 17:54 | 50.76721 | 7.16771 | 207 ft | 0 kts | 19° |
| 2026-04-12 17:55 | 50.76738 | 7.16780 | 197 ft | 11 kts | 18° |
| 2026-04-12 17:55 | 50.76784 | 7.16802 | 201 ft | 2 kts | 354° |
| 2026-04-12 17:55 | 50.76790 | 7.16797 | 197 ft | 3 kts | 288° |
| 2026-04-12 17:56 | 50.76875 | 7.16400 | 201 ft | 72 kts | 287° |
| 2026-04-12 17:56 | 50.77104 | 7.15460 | 386 ft | 101 kts | 293° |
| 2026-04-12 17:56 | 50.77355 | 7.14399 | 764 ft | 113 kts | 290° |
| 2026-04-12 17:56 | 50.77563 | 7.13086 | 1223 ft | 131 kts | 276° |
| 2026-04-12 17:57 | 50.77268 | 7.11652 | 1600 ft | 153 kts | 230° |
| 2026-04-12 17:57 | 50.76519 | 7.10305 | 1844 ft | 165 kts | 226° |
| 2026-04-12 17:57 | 50.75604 | 7.09121 | 1967 ft | 175 kts | 211° |
| 2026-04-12 17:57 | 50.74538 | 7.08249 | 2320 ft | 177 kts | 202° |
| 2026-04-12 17:58 | 50.73329 | 7.07489 | 2358 ft | 191 kts | 200° |
| 2026-04-12 17:58 | 50.72127 | 7.06746 | 2693 ft | 172 kts | 200° |
| 2026-04-12 17:58 | 50.71009 | 7.06064 | 2689 ft | 179 kts | 198° |
| 2026-04-12 17:58 | 50.69829 | 7.05390 | 2757 ft | 182 kts | 198° |